sensor_id;sensor_type;location;lat;lon;timestamp;temperature;humidity
33881;DHT22;20172;47.530;10.256;2023-07-13T00:00:34;18.30;99.90
33881;DHT22;20172;47.530;10.256;2023-07-13T00:03:01;18.30;99.90
33881;DHT22;20172;47.530;10.256;2023-07-13T00:05:27;18.30;99.90
33881;DHT22;20172;47.530;10.256;2023-07-13T00:07:52;18.30;99.90
33881;DHT22;20172;47.530;10.256;2023-07-13T00:10:20;18.30;99.90
33881;DHT22;20172;47.530;10.256;2023-07-13T00:12:45;18.30;99.90
33881;DHT22;20172;47.530;10.256;2023-07-13T00:15:15;18.40;99.90
33881;DHT22;20172;47.530;10.256;2023-07-13T00:17:51;18.40;99.90
33881;DHT22;20172;47.530;10.256;2023-07-13T00:20:17;18.40;99.90
33881;DHT22;20172;47.530;10.256;2023-07-13T00:22:42;18.50;99.90
33881;DHT22;20172;47.530;10.256;2023-07-13T00:25:11;18.50;99.90
33881;DHT22;20172;47.530;10.256;2023-07-13T00:27:37;18.50;99.90
33881;DHT22;20172;47.530;10.256;2023-07-13T00:30:03;18.50;99.90
33881;DHT22;20172;47.530;10.256;2023-07-13T00:32:28;18.50;99.90
33881;DHT22;20172;47.530;10.256;2023-07-13T00:34:55;18.40;99.90
33881;DHT22;20172;47.530;10.256;2023-07-13T00:37:21;18.40;99.90
33881;DHT22;20172;47.530;10.256;2023-07-13T00:39:47;18.40;99.90
33881;DHT22;20172;47.530;10.256;2023-07-13T00:42:12;18.40;99.90
33881;DHT22;20172;47.530;10.256;2023-07-13T00:44:38;18.40;99.90
33881;DHT22;20172;47.530;10.256;2023-07-13T00:47:05;18.40;99.90
33881;DHT22;20172;47.530;10.256;2023-07-13T00:49:31;18.40;99.90
33881;DHT22;20172;47.530;10.256;2023-07-13T00:52:07;18.40;99.90
33881;DHT22;20172;47.530;10.256;2023-07-13T00:54:35;18.40;99.90
33881;DHT22;20172;47.530;10.256;2023-07-13T00:57:02;18.30;99.90
33881;DHT22;20172;47.530;10.256;2023-07-13T00:59:28;18.30;99.90
33881;DHT22;20172;47.530;10.256;2023-07-13T01:01:54;18.30;99.90
33881;DHT22;20172;47.530;10.256;2023-07-13T01:04:20;18.30;99.90
33881;DHT22;20172;47.530;10.256;2023-07-13T01:06:45;18.30;99.90
33881;DHT22;20172;47.530;10.256;2023-07-13T01:09:12;18.30;99.90
33881;DHT22;20172;47.530;10.256;2023-07-13T01:11:38;18.20;99.90
33881;DHT22;20172;47.530;10.256;2023-07-13T01:14:04;18.10;99.90
33881;DHT22;20172;47.530;10.256;2023-07-13T01:16:30;18.10;99.90
33881;DHT22;20172;47.530;10.256;2023-07-13T01:18:56;18.00;99.90
33881;DHT22;20172;47.530;10.256;2023-07-13T01:21:23;18.00;99.90
33881;DHT22;20172;47.530;10.256;2023-07-13T01:23:49;18.00;99.90
33881;DHT22;20172;47.530;10.256;2023-07-13T01:26:16;18.00;99.90
33881;DHT22;20172;47.530;10.256;2023-07-13T01:28:41;18.00;99.90
33881;DHT22;20172;47.530;10.256;2023-07-13T01:31:07;18.00;99.90
33881;DHT22;20172;47.530;10.256;2023-07-13T01:33:36;17.90;99.90
33881;DHT22;20172;47.530;10.256;2023-07-13T01:36:02;17.90;99.90
33881;DHT22;20172;47.530;10.256;2023-07-13T01:38:27;17.90;99.90
33881;DHT22;20172;47.530;10.256;2023-07-13T01:40:53;17.90;99.90
33881;DHT22;20172;47.530;10.256;2023-07-13T01:43:18;18.00;99.90
33881;DHT22;20172;47.530;10.256;2023-07-13T01:45:46;18.00;99.90
33881;DHT22;20172;47.530;10.256;2023-07-13T01:48:12;18.00;99.90
33881;DHT22;20172;47.530;10.256;2023-07-13T01:50:38;18.10;99.90
33881;DHT22;20172;47.530;10.256;2023-07-13T01:53:03;18.10;99.90
33881;DHT22;20172;47.530;10.256;2023-07-13T01:55:29;18.10;99.90
33881;DHT22;20172;47.530;10.256;2023-07-13T01:57:55;18.10;99.90
33881;DHT22;20172;47.530;10.256;2023-07-13T02:00:21;18.10;99.90
33881;DHT22;20172;47.530;10.256;2023-07-13T02:02:46;18.10;99.90
33881;DHT22;20172;47.530;10.256;2023-07-13T02:05:12;18.10;99.90
33881;DHT22;20172;47.530;10.256;2023-07-13T02:07:39;18.00;99.90
33881;DHT22;20172;47.530;10.256;2023-07-13T02:10:05;18.00;99.90
33881;DHT22;20172;47.530;10.256;2023-07-13T02:12:31;18.00;99.90
33881;DHT22;20172;47.530;10.256;2023-07-13T02:14:56;17.90;99.90
33881;DHT22;20172;47.530;10.256;2023-07-13T02:17:22;17.90;99.90
33881;DHT22;20172;47.530;10.256;2023-07-13T02:19:48;17.80;99.90
33881;DHT22;20172;47.530;10.256;2023-07-13T02:22:13;17.80;99.90
33881;DHT22;20172;47.530;10.256;2023-07-13T02:24:39;17.80;99.90
33881;DHT22;20172;47.530;10.256;2023-07-13T02:27:05;17.90;99.90
33881;DHT22;20172;47.530;10.256;2023-07-13T02:29:30;17.90;99.90
33881;DHT22;20172;47.530;10.256;2023-07-13T02:31:56;17.90;99.90
33881;DHT22;20172;47.530;10.256;2023-07-13T02:34:22;17.90;99.90
33881;DHT22;20172;47.530;10.256;2023-07-13T02:36:47;17.90;99.90
33881;DHT22;20172;47.530;10.256;2023-07-13T02:39:13;17.90;99.90
33881;DHT22;20172;47.530;10.256;2023-07-13T02:41:38;17.90;99.90
33881;DHT22;20172;47.530;10.256;2023-07-13T02:44:04;17.90;99.90
33881;DHT22;20172;47.530;10.256;2023-07-13T02:46:33;17.80;99.90
33881;DHT22;20172;47.530;10.256;2023-07-13T02:48:59;17.80;99.90
33881;DHT22;20172;47.530;10.256;2023-07-13T02:51:25;17.80;99.90
33881;DHT22;20172;47.530;10.256;2023-07-13T02:53:50;17.80;99.90
33881;DHT22;20172;47.530;10.256;2023-07-13T02:56:16;17.80;99.90
33881;DHT22;20172;47.530;10.256;2023-07-13T02:58:42;17.80;99.90
33881;DHT22;20172;47.530;10.256;2023-07-13T03:01:08;17.70;99.90
33881;DHT22;20172;47.530;10.256;2023-07-13T03:03:34;17.80;99.90
33881;DHT22;20172;47.530;10.256;2023-07-13T03:06:00;17.80;99.90
33881;DHT22;20172;47.530;10.256;2023-07-13T03:08:27;17.80;99.90
33881;DHT22;20172;47.530;10.256;2023-07-13T03:11:06;17.80;99.90
33881;DHT22;20172;47.530;10.256;2023-07-13T03:13:32;17.80;99.90
33881;DHT22;20172;47.530;10.256;2023-07-13T03:15:58;17.90;99.90
33881;DHT22;20172;47.530;10.256;2023-07-13T03:18:25;17.90;99.90
33881;DHT22;20172;47.530;10.256;2023-07-13T03:20:51;18.00;99.90
33881;DHT22;20172;47.530;10.256;2023-07-13T03:23:19;18.00;99.90
33881;DHT22;20172;47.530;10.256;2023-07-13T03:25:45;18.00;99.90
33881;DHT22;20172;47.530;10.256;2023-07-13T03:28:11;18.00;99.90
33881;DHT22;20172;47.530;10.256;2023-07-13T03:30:37;18.10;99.90
33881;DHT22;20172;47.530;10.256;2023-07-13T03:33:03;18.00;99.90
33881;DHT22;20172;47.530;10.256;2023-07-13T03:35:28;18.00;99.90
33881;DHT22;20172;47.530;10.256;2023-07-13T03:37:54;18.10;99.90
33881;DHT22;20172;47.530;10.256;2023-07-13T03:40:19;18.10;99.90
33881;DHT22;20172;47.530;10.256;2023-07-13T03:42:45;18.10;99.90
33881;DHT22;20172;47.530;10.256;2023-07-13T03:45:11;18.10;99.90
33881;DHT22;20172;47.530;10.256;2023-07-13T03:47:36;18.10;99.90
33881;DHT22;20172;47.530;10.256;2023-07-13T03:50:02;18.00;99.90
33881;DHT22;20172;47.530;10.256;2023-07-13T03:52:28;18.00;99.90
33881;DHT22;20172;47.530;10.256;2023-07-13T03:54:54;18.00;99.90
33881;DHT22;20172;47.530;10.256;2023-07-13T03:57:19;17.90;99.90
33881;DHT22;20172;47.530;10.256;2023-07-13T03:59:45;17.90;99.90
33881;DHT22;20172;47.530;10.256;2023-07-13T04:02:11;17.80;99.90
33881;DHT22;20172;47.530;10.256;2023-07-13T04:04:36;17.80;99.90
33881;DHT22;20172;47.530;10.256;2023-07-13T04:07:06;17.80;99.90
33881;DHT22;20172;47.530;10.256;2023-07-13T04:09:32;17.80;99.90
33881;DHT22;20172;47.530;10.256;2023-07-13T04:11:58;17.70;99.90
33881;DHT22;20172;47.530;10.256;2023-07-13T04:14:23;17.70;99.90
33881;DHT22;20172;47.530;10.256;2023-07-13T04:16:49;17.70;99.90
33881;DHT22;20172;47.530;10.256;2023-07-13T04:19:14;17.70;99.90
33881;DHT22;20172;47.530;10.256;2023-07-13T04:21:40;17.70;99.90
33881;DHT22;20172;47.530;10.256;2023-07-13T04:24:05;17.70;99.90
33881;DHT22;20172;47.530;10.256;2023-07-13T04:26:31;17.70;99.90
33881;DHT22;20172;47.530;10.256;2023-07-13T04:29:00;17.70;99.90
33881;DHT22;20172;47.530;10.256;2023-07-13T04:31:25;17.70;99.90
33881;DHT22;20172;47.530;10.256;2023-07-13T04:33:51;17.70;99.90
33881;DHT22;20172;47.530;10.256;2023-07-13T04:36:16;17.70;99.90
33881;DHT22;20172;47.530;10.256;2023-07-13T04:38:42;17.80;99.90
33881;DHT22;20172;47.530;10.256;2023-07-13T04:41:11;17.80;99.90
33881;DHT22;20172;47.530;10.256;2023-07-13T04:43:37;17.80;99.90
33881;DHT22;20172;47.530;10.256;2023-07-13T04:46:04;17.80;99.90
33881;DHT22;20172;47.530;10.256;2023-07-13T04:48:33;17.90;99.90
33881;DHT22;20172;47.530;10.256;2023-07-13T04:50:59;17.90;99.90
33881;DHT22;20172;47.530;10.256;2023-07-13T04:53:24;18.00;99.90
33881;DHT22;20172;47.530;10.256;2023-07-13T04:55:50;18.00;99.90
33881;DHT22;20172;47.530;10.256;2023-07-13T04:58:18;18.00;99.90
33881;DHT22;20172;47.530;10.256;2023-07-13T05:00:44;18.00;99.90
33881;DHT22;20172;47.530;10.256;2023-07-13T05:03:10;18.00;99.90
33881;DHT22;20172;47.530;10.256;2023-07-13T05:05:35;18.00;99.90
33881;DHT22;20172;47.530;10.256;2023-07-13T05:08:01;18.00;99.90
33881;DHT22;20172;47.530;10.256;2023-07-13T05:10:27;17.90;99.90
33881;DHT22;20172;47.530;10.256;2023-07-13T05:12:53;17.90;99.90
33881;DHT22;20172;47.530;10.256;2023-07-13T05:15:20;17.90;99.90
33881;DHT22;20172;47.530;10.256;2023-07-13T05:17:47;17.90;99.90
33881;DHT22;20172;47.530;10.256;2023-07-13T05:20:12;18.00;99.90
33881;DHT22;20172;47.530;10.256;2023-07-13T05:22:38;18.00;99.90
33881;DHT22;20172;47.530;10.256;2023-07-13T05:25:06;18.10;99.90
33881;DHT22;20172;47.530;10.256;2023-07-13T05:27:32;18.10;99.90
33881;DHT22;20172;47.530;10.256;2023-07-13T05:29:58;18.20;99.90
33881;DHT22;20172;47.530;10.256;2023-07-13T05:32:23;18.30;99.90
33881;DHT22;20172;47.530;10.256;2023-07-13T05:34:49;18.30;99.90
33881;DHT22;20172;47.530;10.256;2023-07-13T05:37:14;18.30;99.90
33881;DHT22;20172;47.530;10.256;2023-07-13T05:39:40;18.40;99.90
33881;DHT22;20172;47.530;10.256;2023-07-13T05:42:06;18.50;99.90
33881;DHT22;20172;47.530;10.256;2023-07-13T05:44:31;18.60;99.90
33881;DHT22;20172;47.530;10.256;2023-07-13T05:46:57;18.60;99.90
33881;DHT22;20172;47.530;10.256;2023-07-13T05:49:22;18.60;99.90
33881;DHT22;20172;47.530;10.256;2023-07-13T05:51:48;18.60;99.90
33881;DHT22;20172;47.530;10.256;2023-07-13T05:54:14;18.60;99.90
33881;DHT22;20172;47.530;10.256;2023-07-13T05:56:39;18.70;99.90
33881;DHT22;20172;47.530;10.256;2023-07-13T05:59:05;18.80;99.90
33881;DHT22;20172;47.530;10.256;2023-07-13T06:01:30;18.80;99.90
33881;DHT22;20172;47.530;10.256;2023-07-13T06:03:56;18.90;99.90
33881;DHT22;20172;47.530;10.256;2023-07-13T06:06:21;18.90;99.90
33881;DHT22;20172;47.530;10.256;2023-07-13T06:08:50;19.00;99.90
33881;DHT22;20172;47.530;10.256;2023-07-13T06:11:20;19.00;99.90
33881;DHT22;20172;47.530;10.256;2023-07-13T06:13:46;19.10;99.90
33881;DHT22;20172;47.530;10.256;2023-07-13T06:16:15;19.10;99.90
33881;DHT22;20172;47.530;10.256;2023-07-13T06:18:41;19.20;99.90
33881;DHT22;20172;47.530;10.256;2023-07-13T06:21:12;19.20;99.90
33881;DHT22;20172;47.530;10.256;2023-07-13T06:23:37;19.20;99.90
33881;DHT22;20172;47.530;10.256;2023-07-13T06:26:03;19.20;99.90
33881;DHT22;20172;47.530;10.256;2023-07-13T06:28:29;19.20;99.90
33881;DHT22;20172;47.530;10.256;2023-07-13T06:30:57;19.30;99.90
33881;DHT22;20172;47.530;10.256;2023-07-13T06:33:22;19.30;99.90
33881;DHT22;20172;47.530;10.256;2023-07-13T06:35:48;19.40;99.90
33881;DHT22;20172;47.530;10.256;2023-07-13T06:38:14;19.50;99.90
33881;DHT22;20172;47.530;10.256;2023-07-13T06:40:39;19.60;99.90
33881;DHT22;20172;47.530;10.256;2023-07-13T06:43:05;19.70;99.90
33881;DHT22;20172;47.530;10.256;2023-07-13T06:45:32;19.70;99.90
33881;DHT22;20172;47.530;10.256;2023-07-13T06:47:58;19.70;99.90
33881;DHT22;20172;47.530;10.256;2023-07-13T06:50:23;19.70;99.90
33881;DHT22;20172;47.530;10.256;2023-07-13T06:52:49;19.60;99.90
33881;DHT22;20172;47.530;10.256;2023-07-13T06:55:14;19.40;99.90
33881;DHT22;20172;47.530;10.256;2023-07-13T06:57:40;19.20;99.90
33881;DHT22;20172;47.530;10.256;2023-07-13T07:00:05;19.00;99.90
33881;DHT22;20172;47.530;10.256;2023-07-13T07:02:32;18.70;99.90
33881;DHT22;20172;47.530;10.256;2023-07-13T07:04:57;18.60;99.90
33881;DHT22;20172;47.530;10.256;2023-07-13T07:07:26;18.30;99.90
33881;DHT22;20172;47.530;10.256;2023-07-13T07:09:51;18.10;99.90
33881;DHT22;20172;47.530;10.256;2023-07-13T07:12:17;17.90;99.90
33881;DHT22;20172;47.530;10.256;2023-07-13T07:14:42;17.80;99.90
33881;DHT22;20172;47.530;10.256;2023-07-13T07:17:08;17.80;99.90
33881;DHT22;20172;47.530;10.256;2023-07-13T07:19:34;17.80;99.90
33881;DHT22;20172;47.530;10.256;2023-07-13T07:22:00;17.80;99.90
33881;DHT22;20172;47.530;10.256;2023-07-13T07:24:26;17.80;99.90
33881;DHT22;20172;47.530;10.256;2023-07-13T07:26:52;17.80;99.90
33881;DHT22;20172;47.530;10.256;2023-07-13T07:29:17;17.80;99.90
33881;DHT22;20172;47.530;10.256;2023-07-13T07:31:43;17.80;99.90
33881;DHT22;20172;47.530;10.256;2023-07-13T07:34:08;17.80;99.90
33881;DHT22;20172;47.530;10.256;2023-07-13T07:36:34;17.80;99.90
33881;DHT22;20172;47.530;10.256;2023-07-13T07:38:59;17.80;99.90
33881;DHT22;20172;47.530;10.256;2023-07-13T07:41:25;17.80;99.90
33881;DHT22;20172;47.530;10.256;2023-07-13T07:43:50;17.80;99.90
33881;DHT22;20172;47.530;10.256;2023-07-13T07:46:16;17.80;99.90
33881;DHT22;20172;47.530;10.256;2023-07-13T07:48:41;17.80;99.90
33881;DHT22;20172;47.530;10.256;2023-07-13T07:51:07;17.80;99.90
33881;DHT22;20172;47.530;10.256;2023-07-13T07:53:33;17.80;99.90
33881;DHT22;20172;47.530;10.256;2023-07-13T07:55:58;17.70;99.90
33881;DHT22;20172;47.530;10.256;2023-07-13T07:58:26;17.80;99.90
33881;DHT22;20172;47.530;10.256;2023-07-13T08:00:51;17.70;99.90
33881;DHT22;20172;47.530;10.256;2023-07-13T08:03:17;17.70;99.90
33881;DHT22;20172;47.530;10.256;2023-07-13T08:05:42;17.70;99.90
33881;DHT22;20172;47.530;10.256;2023-07-13T08:08:08;17.80;99.90
33881;DHT22;20172;47.530;10.256;2023-07-13T08:10:36;17.80;99.90
33881;DHT22;20172;47.530;10.256;2023-07-13T08:13:02;17.80;99.90
33881;DHT22;20172;47.530;10.256;2023-07-13T08:15:28;17.70;99.90
33881;DHT22;20172;47.530;10.256;2023-07-13T08:17:53;17.70;99.90
33881;DHT22;20172;47.530;10.256;2023-07-13T08:20:19;17.70;99.90
33881;DHT22;20172;47.530;10.256;2023-07-13T08:22:45;17.60;99.90
33881;DHT22;20172;47.530;10.256;2023-07-13T08:25:10;17.70;99.90
33881;DHT22;20172;47.530;10.256;2023-07-13T08:27:36;17.90;99.90
33881;DHT22;20172;47.530;10.256;2023-07-13T08:30:01;18.00;99.90
33881;DHT22;20172;47.530;10.256;2023-07-13T08:32:27;18.10;99.90
33881;DHT22;20172;47.530;10.256;2023-07-13T08:34:52;18.30;99.90
33881;DHT22;20172;47.530;10.256;2023-07-13T08:37:18;18.40;99.90
33881;DHT22;20172;47.530;10.256;2023-07-13T08:39:45;18.60;99.90
33881;DHT22;20172;47.530;10.256;2023-07-13T08:47:14;18.90;99.90
33881;DHT22;20172;47.530;10.256;2023-07-13T08:49:41;18.90;99.90
33881;DHT22;20172;47.530;10.256;2023-07-13T08:52:15;18.90;99.90
33881;DHT22;20172;47.530;10.256;2023-07-13T08:54:45;19.00;99.90
33881;DHT22;20172;47.530;10.256;2023-07-13T08:57:15;19.30;99.90
33881;DHT22;20172;47.530;10.256;2023-07-13T08:59:42;19.50;99.90
33881;DHT22;20172;47.530;10.256;2023-07-13T09:07:29;20.00;99.90
33881;DHT22;20172;47.530;10.256;2023-07-13T09:14:52;20.50;99.90
33881;DHT22;20172;47.530;10.256;2023-07-13T09:17:19;20.70;99.90
33881;DHT22;20172;47.530;10.256;2023-07-13T09:19:49;21.10;99.90
33881;DHT22;20172;47.530;10.256;2023-07-13T09:22:16;21.40;99.90
33881;DHT22;20172;47.530;10.256;2023-07-13T09:24:54;21.70;99.90
33881;DHT22;20172;47.530;10.256;2023-07-13T09:27:22;22.10;99.90
33881;DHT22;20172;47.530;10.256;2023-07-13T09:29:50;22.30;99.90
33881;DHT22;20172;47.530;10.256;2023-07-13T09:32:20;22.30;99.90
33881;DHT22;20172;47.530;10.256;2023-07-13T09:34:50;22.30;99.90
33881;DHT22;20172;47.530;10.256;2023-07-13T09:37:16;22.40;99.90
33881;DHT22;20172;47.530;10.256;2023-07-13T09:39:42;22.50;99.90
33881;DHT22;20172;47.530;10.256;2023-07-13T09:44:37;22.60;99.90
33881;DHT22;20172;47.530;10.256;2023-07-13T09:47:03;22.70;99.90
33881;DHT22;20172;47.530;10.256;2023-07-13T09:49:38;22.90;99.90
33881;DHT22;20172;47.530;10.256;2023-07-13T09:52:12;23.00;99.90
33881;DHT22;20172;47.530;10.256;2023-07-13T09:54:39;23.10;99.90
33881;DHT22;20172;47.530;10.256;2023-07-13T09:57:12;23.10;99.90
33881;DHT22;20172;47.530;10.256;2023-07-13T09:59:41;23.10;99.90
33881;DHT22;20172;47.530;10.256;2023-07-13T10:04:55;23.10;99.90
33881;DHT22;20172;47.530;10.256;2023-07-13T10:07:22;23.00;99.90
33881;DHT22;20172;47.530;10.256;2023-07-13T10:09:51;22.90;99.90
33881;DHT22;20172;47.530;10.256;2023-07-13T10:12:18;22.90;99.90
33881;DHT22;20172;47.530;10.256;2023-07-13T10:14:44;22.90;99.90
33881;DHT22;20172;47.530;10.256;2023-07-13T10:17:10;22.90;99.90
33881;DHT22;20172;47.530;10.256;2023-07-13T10:19:37;22.90;99.90
33881;DHT22;20172;47.530;10.256;2023-07-13T10:22:14;22.80;99.90
33881;DHT22;20172;47.530;10.256;2023-07-13T10:24:43;22.70;99.90
33881;DHT22;20172;47.530;10.256;2023-07-13T10:27:19;22.80;99.90
33881;DHT22;20172;47.530;10.256;2023-07-13T10:29:48;22.90;99.90
33881;DHT22;20172;47.530;10.256;2023-07-13T10:32:15;22.90;99.90
33881;DHT22;20172;47.530;10.256;2023-07-13T10:34:41;22.90;99.90
33881;DHT22;20172;47.530;10.256;2023-07-13T10:37:20;22.80;99.90
33881;DHT22;20172;47.530;10.256;2023-07-13T10:39:48;22.80;99.90
33881;DHT22;20172;47.530;10.256;2023-07-13T10:42:15;23.00;99.90
33881;DHT22;20172;47.530;10.256;2023-07-13T10:44:43;23.30;99.90
33881;DHT22;20172;47.530;10.256;2023-07-13T10:47:11;23.60;99.90
33881;DHT22;20172;47.530;10.256;2023-07-13T10:49:39;23.70;99.90
33881;DHT22;20172;47.530;10.256;2023-07-13T10:52:05;23.80;99.90
33881;DHT22;20172;47.530;10.256;2023-07-13T10:54:34;23.60;99.90
33881;DHT22;20172;47.530;10.256;2023-07-13T10:59:37;23.80;99.90
33881;DHT22;20172;47.530;10.256;2023-07-13T11:04:39;23.50;99.90
33881;DHT22;20172;47.530;10.256;2023-07-13T11:07:10;23.30;99.90
33881;DHT22;20172;47.530;10.256;2023-07-13T11:09:39;23.10;99.90
33881;DHT22;20172;47.530;10.256;2023-07-13T11:12:07;22.90;99.90
33881;DHT22;20172;47.530;10.256;2023-07-13T11:14:37;22.80;99.90
33881;DHT22;20172;47.530;10.256;2023-07-13T11:17:54;22.80;99.90
33881;DHT22;20172;47.530;10.256;2023-07-13T11:19:52;22.70;99.90
33881;DHT22;20172;47.530;10.256;2023-07-13T11:22:22;22.60;99.90
33881;DHT22;20172;47.530;10.256;2023-07-13T11:24:49;22.50;99.90
33881;DHT22;20172;47.530;10.256;2023-07-13T11:27:38;22.50;99.90
33881;DHT22;20172;47.530;10.256;2023-07-13T11:30:23;22.40;99.90
33881;DHT22;20172;47.530;10.256;2023-07-13T11:35:35;22.30;99.90
33881;DHT22;20172;47.530;10.256;2023-07-13T11:38:02;22.50;99.90
33881;DHT22;20172;47.530;10.256;2023-07-13T11:40:28;22.80;99.90
33881;DHT22;20172;47.530;10.256;2023-07-13T11:43:01;23.20;99.90
33881;DHT22;20172;47.530;10.256;2023-07-13T11:45:29;23.40;99.90
33881;DHT22;20172;47.530;10.256;2023-07-13T11:47:57;23.60;99.90
33881;DHT22;20172;47.530;10.256;2023-07-13T11:50:25;23.70;99.90
33881;DHT22;20172;47.530;10.256;2023-07-13T11:52:51;23.90;99.90
33881;DHT22;20172;47.530;10.256;2023-07-13T11:55:19;24.10;99.90
33881;DHT22;20172;47.530;10.256;2023-07-13T11:57:56;24.30;99.90
33881;DHT22;20172;47.530;10.256;2023-07-13T12:00:25;24.50;99.90
33881;DHT22;20172;47.530;10.256;2023-07-13T12:02:52;24.60;99.90
33881;DHT22;20172;47.530;10.256;2023-07-13T12:05:19;24.70;99.90
33881;DHT22;20172;47.530;10.256;2023-07-13T12:07:46;24.70;99.90
33881;DHT22;20172;47.530;10.256;2023-07-13T12:10:25;24.70;99.90
33881;DHT22;20172;47.530;10.256;2023-07-13T12:12:55;24.70;99.90
33881;DHT22;20172;47.530;10.256;2023-07-13T12:15:21;24.50;99.90
33881;DHT22;20172;47.530;10.256;2023-07-13T12:17:47;24.50;99.90
33881;DHT22;20172;47.530;10.256;2023-07-13T12:20:20;24.50;99.90
33881;DHT22;20172;47.530;10.256;2023-07-13T12:22:48;24.50;99.90
33881;DHT22;20172;47.530;10.256;2023-07-13T12:25:15;24.70;99.90
33881;DHT22;20172;47.530;10.256;2023-07-13T12:27:41;24.90;99.90
33881;DHT22;20172;47.530;10.256;2023-07-13T12:35:47;25.30;99.90
33881;DHT22;20172;47.530;10.256;2023-07-13T12:38:13;25.20;99.90
33881;DHT22;20172;47.530;10.256;2023-07-13T12:40:38;25.20;99.90
33881;DHT22;20172;47.530;10.256;2023-07-13T12:46:19;25.00;99.90
33881;DHT22;20172;47.530;10.256;2023-07-13T12:48:50;24.70;99.90
33881;DHT22;20172;47.530;10.256;2023-07-13T12:51:15;24.40;99.90
33881;DHT22;20172;47.530;10.256;2023-07-13T12:53:43;24.10;99.90
33881;DHT22;20172;47.530;10.256;2023-07-13T12:56:15;23.90;99.90
33881;DHT22;20172;47.530;10.256;2023-07-13T12:58:42;23.70;99.90
33881;DHT22;20172;47.530;10.256;2023-07-13T13:01:10;23.60;99.90
33881;DHT22;20172;47.530;10.256;2023-07-13T13:06:41;23.60;99.90
33881;DHT22;20172;47.530;10.256;2023-07-13T13:09:12;23.70;99.90
33881;DHT22;20172;47.530;10.256;2023-07-13T13:11:38;23.80;99.90
33881;DHT22;20172;47.530;10.256;2023-07-13T13:14:05;23.90;99.90
33881;DHT22;20172;47.530;10.256;2023-07-13T13:16:32;24.00;99.90
33881;DHT22;20172;47.530;10.256;2023-07-13T13:18:59;24.20;99.90
33881;DHT22;20172;47.530;10.256;2023-07-13T13:21:27;24.40;99.90
33881;DHT22;20172;47.530;10.256;2023-07-13T13:23:53;24.60;99.90
33881;DHT22;20172;47.530;10.256;2023-07-13T13:26:19;25.00;99.90
33881;DHT22;20172;47.530;10.256;2023-07-13T13:28:45;25.30;99.90
33881;DHT22;20172;47.530;10.256;2023-07-13T13:31:11;25.50;99.90
33881;DHT22;20172;47.530;10.256;2023-07-13T13:33:39;25.50;99.90
33881;DHT22;20172;47.530;10.256;2023-07-13T13:36:21;25.60;99.90
33881;DHT22;20172;47.530;10.256;2023-07-13T13:38:48;25.70;99.90
33881;DHT22;20172;47.530;10.256;2023-07-13T13:41:14;25.90;99.90
33881;DHT22;20172;47.530;10.256;2023-07-13T13:43:40;26.00;99.90
33881;DHT22;20172;47.530;10.256;2023-07-13T13:46:19;25.90;99.90
33881;DHT22;20172;47.530;10.256;2023-07-13T13:48:46;25.70;99.90
33881;DHT22;20172;47.530;10.256;2023-07-13T13:51:21;25.50;99.90
33881;DHT22;20172;47.530;10.256;2023-07-13T13:53:48;25.30;99.90
33881;DHT22;20172;47.530;10.256;2023-07-13T13:56:14;25.20;99.90
33881;DHT22;20172;47.530;10.256;2023-07-13T13:58:39;25.20;99.90
33881;DHT22;20172;47.530;10.256;2023-07-13T14:01:08;25.30;99.90
33881;DHT22;20172;47.530;10.256;2023-07-13T14:03:37;25.30;99.90
33881;DHT22;20172;47.530;10.256;2023-07-13T14:06:03;25.20;99.90
33881;DHT22;20172;47.530;10.256;2023-07-13T14:08:28;25.20;99.90
33881;DHT22;20172;47.530;10.256;2023-07-13T14:10:55;25.20;99.90
33881;DHT22;20172;47.530;10.256;2023-07-13T14:13:23;25.30;99.90
33881;DHT22;20172;47.530;10.256;2023-07-13T14:15:52;25.40;99.90
33881;DHT22;20172;47.530;10.256;2023-07-13T14:18:17;25.60;99.90
33881;DHT22;20172;47.530;10.256;2023-07-13T14:20:44;25.70;99.90
33881;DHT22;20172;47.530;10.256;2023-07-13T14:23:10;25.80;99.90
33881;DHT22;20172;47.530;10.256;2023-07-13T14:25:35;26.00;99.90
33881;DHT22;20172;47.530;10.256;2023-07-13T14:28:04;26.30;99.90
33881;DHT22;20172;47.530;10.256;2023-07-13T14:30:34;26.40;99.90
33881;DHT22;20172;47.530;10.256;2023-07-13T14:33:00;26.20;99.90
33881;DHT22;20172;47.530;10.256;2023-07-13T14:35:25;26.00;99.90
33881;DHT22;20172;47.530;10.256;2023-07-13T14:37:54;25.80;99.90
33881;DHT22;20172;47.530;10.256;2023-07-13T14:40:28;25.60;99.90
33881;DHT22;20172;47.530;10.256;2023-07-13T14:42:54;25.40;99.90
33881;DHT22;20172;47.530;10.256;2023-07-13T14:45:20;25.30;99.90
33881;DHT22;20172;47.530;10.256;2023-07-13T14:47:45;25.10;99.90
33881;DHT22;20172;47.530;10.256;2023-07-13T14:50:12;24.90;99.90
33881;DHT22;20172;47.530;10.256;2023-07-13T14:52:38;24.60;99.90
33881;DHT22;20172;47.530;10.256;2023-07-13T14:55:07;24.20;99.90
33881;DHT22;20172;47.530;10.256;2023-07-13T14:57:33;23.80;99.90
33881;DHT22;20172;47.530;10.256;2023-07-13T14:59:59;23.70;99.90
33881;DHT22;20172;47.530;10.256;2023-07-13T15:02:29;23.60;99.90
33881;DHT22;20172;47.530;10.256;2023-07-13T15:04:55;23.50;99.90
33881;DHT22;20172;47.530;10.256;2023-07-13T15:07:21;23.50;99.90
33881;DHT22;20172;47.530;10.256;2023-07-13T15:09:48;23.60;99.90
33881;DHT22;20172;47.530;10.256;2023-07-13T15:12:14;23.80;99.90
33881;DHT22;20172;47.530;10.256;2023-07-13T15:14:39;24.00;99.90
33881;DHT22;20172;47.530;10.256;2023-07-13T15:17:05;24.00;99.90
33881;DHT22;20172;47.530;10.256;2023-07-13T15:19:31;24.00;99.90
33881;DHT22;20172;47.530;10.256;2023-07-13T15:21:57;24.10;99.90
33881;DHT22;20172;47.530;10.256;2023-07-13T15:24:25;24.10;99.90
33881;DHT22;20172;47.530;10.256;2023-07-13T15:26:51;24.00;99.90
33881;DHT22;20172;47.530;10.256;2023-07-13T15:29:17;23.90;99.90
33881;DHT22;20172;47.530;10.256;2023-07-13T15:31:43;23.90;99.90
33881;DHT22;20172;47.530;10.256;2023-07-13T15:34:12;24.00;99.90
33881;DHT22;20172;47.530;10.256;2023-07-13T15:36:38;24.10;99.90
33881;DHT22;20172;47.530;10.256;2023-07-13T15:39:04;24.20;99.90
33881;DHT22;20172;47.530;10.256;2023-07-13T15:41:30;24.30;99.90
33881;DHT22;20172;47.530;10.256;2023-07-13T15:43:57;24.40;99.90
33881;DHT22;20172;47.530;10.256;2023-07-13T15:46:23;24.40;99.90
33881;DHT22;20172;47.530;10.256;2023-07-13T15:48:49;24.50;99.90
33881;DHT22;20172;47.530;10.256;2023-07-13T15:51:20;24.60;99.90
33881;DHT22;20172;47.530;10.256;2023-07-13T15:53:48;24.70;99.90